Time;durP1;ratioP1;P1;durP2;ratioP2;P2;SDS_P1;SDS_P2;PMS_P1;PMS_P2;Temp;Humidity;BMP_temperature;BMP_pressure;BME280_temperature;BME280_humidity;BME280_pressure;Samples;Min_cycle;Max_cycle;Signal;HPM_P1;HPM_P2
2021/03/15 00:02:15;;;;;;;1.60;0.73;;;5.50;99.90;;;;;;4922710;29;20208;-89
2021/03/15 00:04:46;;;;;;;6.07;1.13;;;5.40;99.90;;;;;;4887464;29;20748;-91
2021/03/15 00:07:17;;;;;;;2.20;0.90;;;5.30;99.90;;;;;;4901741;29;20272;-90
2021/03/15 00:09:49;;;;;;;5.57;1.03;;;5.20;99.90;;;;;;4900844;29;20206;-90
2021/03/15 00:12:20;;;;;;;2.17;1.00;;;5.10;99.90;;;;;;4902990;29;20210;-91
2021/03/15 00:14:52;;;;;;;0.90;0.80;;;5.00;99.90;;;;;;4901810;29;20213;-91
2021/03/15 00:17:22;;;;;;;3.60;1.30;;;5.00;99.90;;;;;;4899932;29;20209;-90
2021/03/15 00:19:52;;;;;;;2.87;1.03;;;5.00;99.90;;;;;;4900523;29;20599;-91
2021/03/15 00:22:22;;;;;;;4.27;1.10;;;4.90;99.90;;;;;;4919987;29;20216;-90
2021/03/15 00:24:53;;;;;;;4.33;0.90;;;4.80;99.90;;;;;;4900996;29;20237;-91
2021/03/15 00:27:24;;;;;;;2.67;0.87;;;4.70;99.90;;;;;;4903974;29;20206;-94
2021/03/15 00:29:54;;;;;;;2.47;1.27;;;4.60;99.90;;;;;;4901165;29;20210;-91
2021/03/15 00:32:25;;;;;;;6.30;1.30;;;4.50;99.90;;;;;;4900833;29;20216;-91
2021/03/15 00:34:56;;;;;;;3.67;1.13;;;4.40;99.90;;;;;;4900806;29;20272;-91
2021/03/15 00:37:26;;;;;;;1.60;0.77;;;4.40;99.90;;;;;;4917462;29;20209;-92
2021/03/15 00:39:58;;;;;;;2.20;0.90;;;4.30;99.90;;;;;;4919351;29;20236;-91
2021/03/15 00:42:29;;;;;;;3.43;1.13;;;4.30;99.90;;;;;;4919237;29;20653;-90
2021/03/15 00:44:59;;;;;;;3.57;0.90;;;4.30;99.90;;;;;;4919629;29;20241;-90
2021/03/15 00:47:30;;;;;;;2.87;0.97;;;4.30;99.90;;;;;;4922859;29;20205;-89
2021/03/15 00:50:01;;;;;;;3.90;1.03;;;4.20;99.90;;;;;;4927132;29;20209;-90
2021/03/15 00:52:34;;;;;;;3.57;1.10;;;4.20;99.90;;;;;;4930481;29;20212;-96
2021/03/15 00:55:06;;;;;;;1.43;0.83;;;4.30;99.90;;;;;;4919699;29;20271;-91
2021/03/15 00:57:36;;;;;;;2.53;0.90;;;4.30;99.90;;;;;;4922070;29;20311;-92
2021/03/15 01:00:09;;;;;;;3.07;0.90;;;4.30;99.90;;;;;;4915827;29;20305;-91
2021/03/15 01:02:40;;;;;;;2.47;0.87;;;4.20;99.90;;;;;;4909780;29;20220;-89
2021/03/15 01:05:12;;;;;;;1.37;0.83;;;4.20;99.90;;;;;;4915438;29;21004;-90
2021/03/15 01:07:43;;;;;;;3.10;1.23;;;4.20;99.90;;;;;;4917372;29;20209;-88
2021/03/15 01:10:17;;;;;;;2.40;0.80;;;4.10;99.90;;;;;;4918156;29;20236;-89
2021/03/15 01:12:47;;;;;;;3.43;1.10;;;4.10;99.90;;;;;;4919985;29;20220;-89
2021/03/15 01:15:21;;;;;;;4.10;0.90;;;4.20;99.90;;;;;;4919361;29;20881;-89
2021/03/15 01:17:52;;;;;;;1.47;0.60;;;4.20;99.90;;;;;;4922268;29;20211;-90
2021/03/15 01:20:22;;;;;;;3.00;0.90;;;4.20;99.90;;;;;;4923385;29;20211;-90
2021/03/15 01:23:00;;;;;;;5.80;1.27;;;4.20;99.90;;;;;;4922134;29;20288;-90
2021/03/15 01:25:35;;;;;;;3.80;1.30;;;4.10;99.90;;;;;;4920851;29;20738;-89
2021/03/15 01:28:07;;;;;;;1.70;1.00;;;4.20;99.90;;;;;;4922140;29;20209;-90
2021/03/15 01:30:40;;;;;;;3.20;1.20;;;4.20;99.90;;;;;;4924146;29;20258;-89
2021/03/15 01:33:11;;;;;;;3.07;1.27;;;4.10;99.90;;;;;;4924398;29;20241;-90
2021/03/15 01:35:43;;;;;;;3.00;1.10;;;4.10;99.90;;;;;;4923187;29;20248;-89
2021/03/15 01:38:13;;;;;;;4.27;1.10;;;4.10;99.90;;;;;;4922548;29;20253;-91
2021/03/15 01:40:46;;;;;;;3.83;1.40;;;4.10;99.90;;;;;;4924256;29;20237;-91
2021/03/15 01:43:16;;;;;;;4.93;1.30;;;4.10;99.90;;;;;;4937127;29;20289;-91
2021/03/15 01:45:47;;;;;;;7.20;1.30;;;4.20;99.90;;;;;;4943666;28;20193;-91
2021/03/15 01:48:17;;;;;;;6.17;3.33;;;4.20;99.90;;;;;;4935563;29;20206;-88
2021/03/15 01:50:50;;;;;;;4.93;2.83;;;4.20;99.90;;;;;;4932717;29;20209;-86
2021/03/15 01:53:22;;;;;;;7.80;1.67;;;4.20;99.90;;;;;;4921158;29;20232;-87
2021/03/15 01:55:55;;;;;;;5.80;2.20;;;4.20;99.90;;;;;;4923862;29;20220;-88
2021/03/15 01:58:27;;;;;;;6.50;2.17;;;4.30;99.90;;;;;;4923832;29;20209;-88
2021/03/15 02:00:57;;;;;;;3.27;1.97;;;4.30;99.90;;;;;;4910977;29;20237;-88
2021/03/15 02:03:29;;;;;;;6.03;2.80;;;4.30;99.90;;;;;;4914395;29;20233;-88
2021/03/15 02:06:00;;;;;;;3.23;1.80;;;4.20;99.90;;;;;;4584686;28;10000422;-88
2021/03/15 02:08:31;;;;;;;4.70;2.00;;;4.30;99.90;;;;;;4912955;29;20209;-87
2021/03/15 02:11:28;;;;;;;6.60;3.00;;;4.30;99.90;;;;;;4921012;29;20241;-87
2021/03/15 02:14:34;;;;;;;2.30;1.63;;;4.20;99.90;;;;;;4919784;29;20706;-87
2021/03/15 02:17:11;;;;;;;6.33;1.87;;;4.30;99.90;;;;;;4904585;29;20214;-86
2021/03/15 02:20:15;;;;;;;6.00;1.80;;;4.20;99.90;;;;;;4901536;29;20221;-87
2021/03/15 02:22:55;;;;;;;3.67;1.70;;;4.20;99.90;;;;;;4575078;29;10000299;-89
2021/03/15 02:26:13;;;;;;;5.17;2.07;;;4.20;99.90;;;;;;4915931;29;20248;-89
2021/03/15 02:29:11;;;;;;;3.53;1.77;;;4.20;99.90;;;;;;4917429;29;20240;-88
2021/03/15 02:32:10;;;;;;;3.63;1.43;;;4.10;99.90;;;;;;4918690;29;20548;-88
2021/03/15 02:35:06;;;;;;;3.33;1.20;;;4.10;99.90;;;;;;4890160;29;20225;-88
2021/03/15 02:37:56;;;;;;;4.67;1.50;;;4.10;99.90;;;;;;4901032;29;20224;-88
2021/03/15 02:40:30;;;;;;;5.87;1.60;;;3.90;99.90;;;;;;4910360;29;20208;-89
2021/03/15 02:43:06;;;;;;;4.23;2.40;;;4.00;99.90;;;;;;4920413;29;20223;-90
2021/03/15 02:45:39;;;;;;;3.93;1.80;;;4.00;99.90;;;;;;4920235;29;20799;-89
2021/03/15 02:48:14;;;;;;;2.33;1.50;;;4.00;99.90;;;;;;4912580;29;20574;-90
2021/03/15 02:50:48;;;;;;;3.17;1.50;;;4.10;99.90;;;;;;4912561;29;20209;-90
2021/03/15 02:53:19;;;;;;;3.53;1.43;;;4.00;99.90;;;;;;4920842;29;20268;-90
2021/03/15 02:55:52;;;;;;;2.73;1.30;;;4.00;99.90;;;;;;4920877;29;20213;-89
2021/03/15 02:58:25;;;;;;;1.93;0.90;;;4.00;99.90;;;;;;4906253;29;20241;-89
2021/03/15 03:00:59;;;;;;;3.93;1.30;;;4.00;99.90;;;;;;4906866;29;20232;-89
2021/03/15 03:03:49;;;;;;;1.33;0.97;;;3.90;99.90;;;;;;4909940;29;20281;-96
2021/03/15 03:06:24;;;;;;;2.33;1.07;;;3.90;99.90;;;;;;4901327;29;20210;-89
2021/03/15 03:08:56;;;;;;;2.67;1.10;;;3.90;99.90;;;;;;4911533;29;20657;-88
2021/03/15 03:11:29;;;;;;;3.67;1.43;;;4.00;99.90;;;;;;4922781;29;20300;-89
2021/03/15 03:14:01;;;;;;;2.07;1.00;;;3.90;99.90;;;;;;4913446;29;20761;-87
2021/03/15 03:16:38;;;;;;;2.00;0.80;;;3.90;99.90;;;;;;4934543;29;20233;-88
2021/03/15 03:19:12;;;;;;;2.53;1.13;;;3.90;99.90;;;;;;4922613;29;20212;-88
2021/03/15 03:21:46;;;;;;;3.30;1.63;;;4.00;99.90;;;;;;4918008;29;20201;-89
2021/03/15 03:24:25;;;;;;;2.53;1.23;;;3.90;99.90;;;;;;4920413;29;20289;-90
2021/03/15 03:26:57;;;;;;;4.97;1.40;;;3.80;99.90;;;;;;4909441;29;20228;-88
2021/03/15 03:29:29;;;;;;;4.97;1.37;;;3.80;99.90;;;;;;4902012;29;20297;-89
2021/03/15 03:32:01;;;;;;;3.67;1.20;;;3.80;99.90;;;;;;4907787;29;20304;-88
2021/03/15 03:34:32;;;;;;;3.60;1.30;;;3.80;99.90;;;;;;4922141;29;20232;-87
2021/03/15 03:37:05;;;;;;;2.03;1.20;;;3.80;99.90;;;;;;4915933;29;20209;-89
2021/03/15 03:39:36;;;;;;;3.30;1.70;;;3.70;99.90;;;;;;4920610;29;20204;-90
2021/03/15 03:42:07;;;;;;;3.77;1.70;;;3.40;99.90;;;;;;4913642;29;20216;-90
2021/03/15 03:44:40;;;;;;;5.77;1.50;;;3.40;99.90;;;;;;4926734;29;20236;-89
2021/03/15 03:47:12;;;;;;;2.57;1.47;;;3.40;99.90;;;;;;4924597;29;20209;-89
2021/03/15 03:49:42;;;;;;;2.53;1.67;;;3.40;99.90;;;;;;4922289;29;20565;-90
2021/03/15 03:52:16;;;;;;;2.10;1.20;;;3.40;99.90;;;;;;4920306;29;20209;-89
2021/03/15 03:54:50;;;;;;;2.63;1.13;;;3.50;99.90;;;;;;4925671;29;20216;-90
2021/03/15 03:57:25;;;;;;;2.10;1.27;;;3.50;99.90;;;;;;4911826;29;20209;-90
2021/03/15 03:59:57;;;;;;;2.00;0.93;;;3.60;99.90;;;;;;4919523;29;20215;-89
2021/03/15 04:02:29;;;;;;;2.00;1.20;;;3.60;99.90;;;;;;4930579;29;20197;-90
2021/03/15 04:05:04;;;;;;;3.53;1.10;;;3.50;99.90;;;;;;4940226;29;20224;-89
2021/03/15 04:07:44;;;;;;;1.63;1.07;;;3.50;99.90;;;;;;4938647;29;20204;-88
2021/03/15 04:10:16;;;;;;;2.90;1.27;;;3.50;99.90;;;;;;4926872;29;20213;-90
2021/03/15 04:12:50;;;;;;;1.60;1.17;;;3.40;99.90;;;;;;4930656;29;20241;-89
2021/03/15 04:15:21;;;;;;;2.07;1.50;;;3.40;99.90;;;;;;4934726;29;20244;-89
2021/03/15 04:17:53;;;;;;;2.47;1.10;;;3.40;99.90;;;;;;4927309;29;20205;-87
2021/03/15 04:20:27;;;;;;;2.83;0.80;;;3.50;99.90;;;;;;4924151;29;20685;-89
2021/03/15 04:23:08;;;;;;;2.40;0.90;;;3.50;99.90;;;;;;4933077;28;20209;-93
2021/03/15 04:25:40;;;;;;;3.47;1.80;;;3.50;99.90;;;;;;4913926;29;20268;-88
2021/03/15 04:28:12;;;;;;;0.70;0.70;;;3.50;99.90;;;;;;4917495;29;20241;-90
2021/03/15 04:30:44;;;;;;;1.10;0.80;;;3.50;99.90;;;;;;4920982;29;20216;-91
2021/03/15 04:33:16;;;;;;;1.23;0.80;;;3.50;99.90;;;;;;4917650;29;20213;-90
2021/03/15 04:35:47;;;;;;;2.47;0.80;;;3.50;99.90;;;;;;4918888;29;20297;-91
2021/03/15 04:38:19;;;;;;;2.57;0.80;;;3.50;99.90;;;;;;4917906;29;20224;-90
2021/03/15 04:40:52;;;;;;;2.30;0.87;;;3.50;99.90;;;;;;4918805;29;20205;-89
2021/03/15 04:43:24;;;;;;;1.90;0.90;;;3.50;99.90;;;;;;4917111;29;20205;-89
2021/03/15 04:45:54;;;;;;;4.10;1.10;;;3.40;99.90;;;;;;4917953;29;20783;-91
2021/03/15 04:48:28;;;;;;;3.07;0.80;;;3.40;99.90;;;;;;4917532;29;20213;-92
2021/03/15 04:51:00;;;;;;;1.70;1.10;;;3.30;99.90;;;;;;4917713;29;20208;-91
2021/03/15 04:53:35;;;;;;;3.33;1.00;;;3.20;99.90;;;;;;4917395;29;20213;-90
2021/03/15 04:56:10;;;;;;;2.13;1.00;;;3.30;99.90;;;;;;4918630;29;20679;-90
2021/03/15 04:58:45;;;;;;;1.23;0.93;;;3.30;99.90;;;;;;4917591;29;20259;-90
2021/03/15 05:01:15;;;;;;;1.57;0.80;;;3.40;99.90;;;;;;4905061;29;20202;-90
2021/03/15 05:03:51;;;;;;;1.67;0.80;;;3.40;99.90;;;;;;4913861;29;20221;-90
2021/03/15 05:06:22;;;;;;;1.40;0.87;;;3.40;99.90;;;;;;4918623;29;20204;-90
2021/03/15 05:09:05;;;;;;;1.30;0.60;;;3.50;99.90;;;;;;4916200;29;20301;-92
2021/03/15 05:11:38;;;;;;;1.40;0.77;;;3.50;99.90;;;;;;4910177;29;20240;-87
2021/03/15 05:14:09;;;;;;;1.07;0.57;;;3.50;99.90;;;;;;4918840;29;20618;-87
2021/03/15 05:16:42;;;;;;;4.03;0.90;;;3.50;99.90;;;;;;4917644;29;20658;-88
2021/03/15 05:19:14;;;;;;;1.30;0.87;;;3.50;99.90;;;;;;4903035;29;20297;-88
2021/03/15 05:21:48;;;;;;;2.23;0.80;;;3.50;99.90;;;;;;4898908;29;20202;-88
2021/03/15 05:24:21;;;;;;;1.40;0.53;;;3.50;99.90;;;;;;4901662;29;20252;-87
2021/03/15 05:26:53;;;;;;;1.97;0.87;;;3.40;99.90;;;;;;4914421;29;20236;-87
2021/03/15 05:29:25;;;;;;;2.47;0.83;;;3.50;99.90;;;;;;4926154;29;20681;-88
2021/03/15 05:31:57;;;;;;;2.30;0.90;;;3.50;99.90;;;;;;4924514;29;20217;-89
2021/03/15 05:34:29;;;;;;;2.30;0.83;;;3.50;99.90;;;;;;4918214;29;20251;-88
2021/03/15 05:37:03;;;;;;;2.27;0.70;;;3.60;99.90;;;;;;4933946;29;20211;-89
2021/03/15 05:39:34;;;;;;;4.30;0.97;;;3.60;99.90;;;;;;4919567;29;20561;-88
2021/03/15 05:42:25;;;;;;;2.47;1.03;;;3.50;99.90;;;;;;4938268;29;20536;-88
2021/03/15 05:45:11;;;;;;;3.20;0.90;;;3.50;99.90;;;;;;4926701;29;20596;-88
2021/03/15 05:48:30;;;;;;;3.97;1.00;;;3.50;99.90;;;;;;4905665;29;20214;-89
2021/03/15 05:51:23;;;;;;;1.13;0.60;;;3.60;99.90;;;;;;4921289;29;20658;-89
2021/03/15 05:54:21;;;;;;;1.20;1.00;;;3.50;99.90;;;;;;4928808;29;20268;-89
2021/03/15 05:57:32;;;;;;;1.30;0.90;;;3.50;99.90;;;;;;4883022;29;20253;-89
2021/03/15 06:00:09;;;;;;;4.30;1.00;;;3.50;99.90;;;;;;4918076;29;20205;-89
2021/03/15 06:03:11;;;;;;;2.40;1.17;;;3.60;99.90;;;;;;4914573;29;20205;-89
2021/03/15 06:05:46;;;;;;;1.50;0.80;;;3.60;99.90;;;;;;4920692;29;20232;-89
2021/03/15 06:08:21;;;;;;;3.33;1.00;;;3.60;99.90;;;;;;4920971;29;20300;-89
2021/03/15 06:11:03;;;;;;;4.33;1.20;;;3.60;99.90;;;;;;4921914;29;20208;-89
2021/03/15 06:13:36;;;;;;;2.07;0.90;;;3.50;99.90;;;;;;4925981;29;20212;-89
2021/03/15 06:16:09;;;;;;;2.20;1.03;;;3.50;99.90;;;;;;4920422;29;20244;-88
2021/03/15 06:18:40;;;;;;;1.47;0.87;;;3.50;99.90;;;;;;4919782;29;20209;-88
2021/03/15 06:21:13;;;;;;;1.47;0.90;;;3.50;99.90;;;;;;4920601;29;20217;-88
2021/03/15 06:23:45;;;;;;;1.97;0.80;;;3.60;99.90;;;;;;4923248;29;20297;-88
2021/03/15 06:26:18;;;;;;;4.93;1.03;;;3.60;99.90;;;;;;4923384;29;20345;-88
2021/03/15 06:28:50;;;;;;;1.70;0.93;;;3.60;99.90;;;;;;4920793;29;20213;-88
2021/03/15 06:31:21;;;;;;;4.60;1.30;;;3.60;99.90;;;;;;4940903;29;20315;-89
2021/03/15 06:33:53;;;;;;;3.67;0.87;;;3.60;99.90;;;;;;4942029;28;20232;-88
2021/03/15 06:36:24;;;;;;;3.57;1.00;;;3.60;99.90;;;;;;4934131;29;20205;-88
2021/03/15 06:38:57;;;;;;;3.87;1.17;;;3.60;99.90;;;;;;4926054;29;20271;-88
2021/03/15 06:41:29;;;;;;;2.57;0.80;;;3.60;99.90;;;;;;4924972;29;20635;-88
2021/03/15 06:44:02;;;;;;;2.30;0.97;;;3.50;99.90;;;;;;4920831;29;20209;-88
2021/03/15 06:46:32;;;;;;;9.17;1.23;;;3.60;99.90;;;;;;4910763;29;20229;-89
2021/03/15 06:49:03;;;;;;;5.50;1.23;;;3.60;99.90;;;;;;4918238;29;20209;-88
2021/03/15 06:51:35;;;;;;;3.20;1.20;;;3.60;99.90;;;;;;4906620;29;20312;-88
2021/03/15 06:54:25;;;;;;;5.63;1.13;;;3.60;99.90;;;;;;4903891;29;20218;-89
2021/03/15 06:57:13;;;;;;;2.40;0.90;;;3.60;99.90;;;;;;4911571;29;20240;-88
2021/03/15 06:59:54;;;;;;;7.33;1.40;;;3.60;99.90;;;;;;4923385;29;20677;-89
2021/03/15 07:02:30;;;;;;;5.40;1.10;;;3.60;99.90;;;;;;4921808;29;20205;-88
2021/03/15 07:05:10;;;;;;;5.43;1.03;;;3.60;99.90;;;;;;4929838;29;20236;-89
2021/03/15 07:07:49;;;;;;;4.63;1.77;;;3.60;99.90;;;;;;4921359;29;20287;-89
2021/03/15 07:10:22;;;;;;;6.17;1.00;;;3.60;99.90;;;;;;4920927;29;20216;-89
2021/03/15 07:13:11;;;;;;;4.33;1.00;;;3.60;99.90;;;;;;4919734;29;20244;-89
2021/03/15 07:15:45;;;;;;;5.27;1.00;;;3.60;99.90;;;;;;4920661;29;20312;-88
2021/03/15 07:18:17;;;;;;;2.63;1.10;;;3.60;99.90;;;;;;4915864;29;20209;-89
2021/03/15 07:20:51;;;;;;;5.30;1.30;;;3.60;99.90;;;;;;4927571;28;20215;-89
2021/03/15 07:23:39;;;;;;;3.20;1.00;;;3.60;99.90;;;;;;4936412;29;20251;-89
2021/03/15 07:26:15;;;;;;;2.87;0.80;;;3.60;99.90;;;;;;4939281;29;20334;-88
2021/03/15 07:28:47;;;;;;;3.13;1.13;;;3.60;99.90;;;;;;4925884;29;20231;-88
2021/03/15 07:31:35;;;;;;;2.20;1.10;;;3.70;99.90;;;;;;4912458;29;20214;-87
2021/03/15 07:34:15;;;;;;;3.13;1.00;;;3.60;99.90;;;;;;4929958;29;20217;-89
2021/03/15 07:36:54;;;;;;;3.83;1.00;;;3.60;99.90;;;;;;4918494;29;20285;-89
2021/03/15 07:39:28;;;;;;;5.50;1.17;;;3.60;99.90;;;;;;4909083;29;20213;-88
2021/03/15 07:42:01;;;;;;;3.97;1.10;;;3.60;99.90;;;;;;4922408;29;20240;-88
2021/03/15 07:44:33;;;;;;;4.93;0.90;;;3.60;99.90;;;;;;4912457;29;20214;-88
2021/03/15 07:47:06;;;;;;;3.23;1.10;;;3.60;99.90;;;;;;4907800;29;20205;-88
2021/03/15 07:49:38;;;;;;;5.10;1.30;;;3.60;99.90;;;;;;4905502;29;20212;-88
2021/03/15 07:52:09;;;;;;;6.63;1.57;;;3.60;99.90;;;;;;4917631;29;20688;-88
2021/03/15 07:54:44;;;;;;;11.50;1.80;;;3.70;99.90;;;;;;4923538;29;20224;-88
2021/03/15 07:57:25;;;;;;;6.00;1.30;;;3.70;99.90;;;;;;4923159;29;20223;-88
2021/03/15 07:59:57;;;;;;;4.97;1.43;;;3.60;99.90;;;;;;4922553;29;20220;-89
2021/03/15 08:02:31;;;;;;;8.80;1.30;;;3.60;99.90;;;;;;4920146;29;20290;-87
2021/03/15 08:05:02;;;;;;;3.07;1.10;;;3.60;99.90;;;;;;4919110;29;20284;-88
2021/03/15 08:07:33;;;;;;;3.50;1.13;;;3.60;99.90;;;;;;4918639;29;20261;-88
2021/03/15 08:10:04;;;;;;;5.63;1.40;;;3.60;99.90;;;;;;4918807;29;20217;-88
2021/03/15 08:12:37;;;;;;;8.77;1.80;;;3.80;99.90;;;;;;4907094;29;20210;-88
2021/03/15 08:15:10;;;;;;;7.60;1.07;;;3.70;99.90;;;;;;4900319;29;20742;-89
2021/03/15 08:17:45;;;;;;;7.47;1.67;;;3.70;99.90;;;;;;4899204;29;20220;-89
2021/03/15 08:20:20;;;;;;;4.80;1.23;;;3.60;99.90;;;;;;4915425;29;20269;-89
2021/03/15 08:22:56;;;;;;;7.17;1.30;;;3.60;99.90;;;;;;4934379;29;20216;-90
2021/03/15 08:25:27;;;;;;;4.40;1.40;;;3.60;99.90;;;;;;4937678;29;20271;-89
2021/03/15 08:28:02;;;;;;;5.77;1.30;;;3.60;99.90;;;;;;4937814;29;20209;-88
2021/03/15 08:30:36;;;;;;;9.53;1.50;;;3.50;99.90;;;;;;4939238;29;20215;-88
2021/03/15 08:33:13;;;;;;;8.57;1.30;;;3.50;99.90;;;;;;4946555;29;20208;-88
2021/03/15 08:35:45;;;;;;;6.60;1.40;;;3.50;99.90;;;;;;4954884;28;20208;-86
2021/03/15 08:38:18;;;;;;;10.43;1.17;;;3.50;99.90;;;;;;4946368;29;20220;-88
2021/03/15 08:41:02;;;;;;;13.67;1.70;;;3.60;99.90;;;;;;4923677;29;20213;-88
2021/03/15 08:43:46;;;;;;;8.67;1.33;;;3.50;99.90;;;;;;4923358;29;20662;-89
2021/03/15 08:46:33;;;;;;;7.07;1.67;;;3.50;99.90;;;;;;4934685;29;20260;-88
2021/03/15 08:49:10;;;;;;;8.80;1.30;;;3.50;99.90;;;;;;4910723;29;20725;-88
2021/03/15 08:51:49;;;;;;;9.00;1.73;;;3.50;99.90;;;;;;4919205;29;20208;-87
2021/03/15 08:54:41;;;;;;;7.77;1.57;;;3.40;99.90;;;;;;4919037;29;20303;-87
2021/03/15 08:57:33;;;;;;;6.53;1.30;;;3.40;99.90;;;;;;4918068;29;20425;-87
2021/03/15 09:00:34;;;;;;;12.67;1.50;;;3.40;99.90;;;;;;4918791;29;20220;-88
2021/03/15 09:03:05;;;;;;;6.80;1.57;;;3.40;99.90;;;;;;4918690;29;20213;-87
2021/03/15 09:05:46;;;;;;;10.13;1.93;;;3.30;99.90;;;;;;4916804;29;20312;-88
2021/03/15 09:08:17;;;;;;;7.03;1.90;;;3.30;99.90;;;;;;4916454;29;20248;-87
2021/03/15 09:10:49;;;;;;;4.87;1.50;;;3.40;99.90;;;;;;4917131;29;20632;-88
2021/03/15 09:13:26;;;;;;;9.40;2.17;;;3.30;99.90;;;;;;4916756;29;20268;-88
2021/03/15 09:16:08;;;;;;;8.83;1.90;;;3.30;99.90;;;;;;4906525;29;20220;-90
2021/03/15 09:18:54;;;;;;;7.57;2.30;;;3.30;99.90;;;;;;4905574;29;20197;-89
2021/03/15 09:21:51;;;;;;;16.10;5.70;;;3.30;99.90;;;;;;4924242;29;20212;-89
2021/03/15 09:24:43;;;;;;;13.80;5.93;;;3.30;99.90;;;;;;4905261;29;20245;-89
2021/03/15 09:27:25;;;;;;;13.73;5.73;;;3.30;99.90;;;;;;4903615;29;20217;-89
2021/03/15 09:29:56;;;;;;;14.43;6.13;;;3.30;99.90;;;;;;4907364;29;20213;-89
2021/03/15 09:32:32;;;;;;;15.07;6.37;;;3.20;99.90;;;;;;4920700;29;20669;-89
2021/03/15 09:35:14;;;;;;;17.97;8.30;;;3.30;99.90;;;;;;4950926;29;20221;-89
2021/03/15 09:37:50;;;;;;;21.40;7.93;;;3.20;99.90;;;;;;4923170;29;20209;-89
2021/03/15 09:40:22;;;;;;;16.87;6.70;;;3.20;99.90;;;;;;4916925;29;20209;-90
2021/03/15 09:42:53;;;;;;;15.10;4.70;;;3.20;99.90;;;;;;4904974;29;20277;-90
2021/03/15 09:45:32;;;;;;;14.50;4.23;;;3.20;99.90;;;;;;4912580;29;20236;-88
2021/03/15 09:48:05;;;;;;;9.60;3.07;;;3.10;99.90;;;;;;4922146;29;20217;-88
2021/03/15 09:50:36;;;;;;;9.30;2.90;;;3.10;99.90;;;;;;4921930;29;20213;-88
2021/03/15 09:53:13;;;;;;;5.37;2.30;;;3.10;99.90;;;;;;4925840;29;21077;-89
2021/03/15 09:55:44;;;;;;;7.50;2.13;;;3.00;99.90;;;;;;4925797;29;20212;-89
2021/03/15 09:58:16;;;;;;;9.17;2.13;;;3.00;99.90;;;;;;4923573;29;20228;-89
2021/03/15 10:00:49;;;;;;;10.83;1.77;;;2.90;99.90;;;;;;4933351;29;20209;-90
2021/03/15 10:03:21;;;;;;;6.00;1.67;;;2.90;99.90;;;;;;4940823;29;20197;-89
2021/03/15 10:05:55;;;;;;;8.60;1.50;;;2.80;99.90;;;;;;4941245;29;20241;-89
2021/03/15 10:08:28;;;;;;;3.77;1.20;;;2.80;99.90;;;;;;4918154;29;20627;-89
2021/03/15 10:11:00;;;;;;;6.10;1.80;;;2.80;99.90;;;;;;4908604;29;20238;-89
2021/03/15 10:13:32;;;;;;;6.03;1.17;;;2.80;99.90;;;;;;4908314;29;20210;-88
2021/03/15 10:16:07;;;;;;;7.67;1.37;;;2.80;99.90;;;;;;4916452;29;20225;-88
2021/03/15 10:18:38;;;;;;;5.83;1.40;;;2.70;99.90;;;;;;4922205;29;20660;-89
2021/03/15 10:21:09;;;;;;;8.13;2.57;;;2.70;99.90;;;;;;4920808;29;20618;-90
2021/03/15 10:23:43;;;;;;;6.20;2.93;;;2.60;99.90;;;;;;4921995;29;20216;-90
2021/03/15 10:26:19;;;;;;;19.47;9.80;;;2.60;99.90;;;;;;4921528;29;20232;-90
2021/03/15 10:28:52;;;;;;;18.93;8.73;;;2.50;99.90;;;;;;4921045;29;20300;-90
2021/03/15 10:31:23;;;;;;;13.27;6.10;;;2.50;99.90;;;;;;4921265;29;20215;-90
2021/03/15 10:33:59;;;;;;;10.67;5.43;;;2.50;99.90;;;;;;4922467;29;20582;-90
2021/03/15 10:36:30;;;;;;;11.90;4.40;;;2.50;99.90;;;;;;4905854;29;20618;-89
2021/03/15 10:39:02;;;;;;;6.43;2.57;;;2.60;99.90;;;;;;4923753;29;20255;-89
2021/03/15 10:41:33;;;;;;;6.33;1.97;;;2.60;99.90;;;;;;4925774;29;20236;-89
2021/03/15 10:44:21;;;;;;;11.77;3.60;;;2.70;99.90;;;;;;4941212;29;20213;-89
2021/03/15 10:46:53;;;;;;;4.13;1.47;;;2.70;99.90;;;;;;4920557;29;20256;-88
2021/03/15 10:49:27;;;;;;;2.57;1.00;;;2.70;99.90;;;;;;4921973;29;20238;-89
2021/03/15 10:51:58;;;;;;;1.97;1.10;;;2.80;99.90;;;;;;4923174;29;20209;-88
2021/03/15 10:54:42;;;;;;;3.70;0.70;;;2.80;99.90;;;;;;4912189;29;20219;-89
2021/03/15 10:57:18;;;;;;;2.83;0.63;;;2.80;99.90;;;;;;4920759;29;20219;-88
2021/03/15 10:59:50;;;;;;;6.10;0.87;;;2.90;99.90;;;;;;4920877;29;20239;-88
2021/03/15 11:02:46;;;;;;;2.73;0.93;;;2.90;99.90;;;;;;4920858;29;20303;-89
2021/03/15 11:05:17;;;;;;;3.50;1.90;;;2.90;99.90;;;;;;4922641;29;20702;-88
2021/03/15 11:07:52;;;;;;;2.57;2.17;;;2.90;99.90;;;;;;4918998;29;20211;-88
2021/03/15 11:10:26;;;;;;;3.83;1.70;;;3.00;99.90;;;;;;4921980;29;20665;-87
2021/03/15 11:12:58;;;;;;;1.30;0.90;;;3.00;99.90;;;;;;4927645;29;20213;-87
2021/03/15 11:15:36;;;;;;;4.73;0.97;;;3.00;99.90;;;;;;4934895;29;20216;-88
2021/03/15 11:18:15;;;;;;;1.07;0.70;;;3.00;99.90;;;;;;4923613;29;20302;-88
2021/03/15 11:20:49;;;;;;;3.03;1.10;;;3.00;99.90;;;;;;4937473;29;20216;-88
2021/03/15 11:23:32;;;;;;;3.47;1.30;;;3.00;99.90;;;;;;4939908;29;20212;-88
2021/03/15 11:26:07;;;;;;;5.40;1.80;;;3.00;99.90;;;;;;4918807;29;20251;-89
2021/03/15 11:28:40;;;;;;;2.37;1.50;;;3.00;99.90;;;;;;4922294;29;20550;-89
2021/03/15 11:31:16;;;;;;;2.13;1.07;;;3.00;99.90;;;;;;4938892;29;20243;-89
2021/03/15 11:33:53;;;;;;;2.20;1.50;;;3.00;99.90;;;;;;4939278;29;20212;-88
2021/03/15 11:36:24;;;;;;;3.83;1.43;;;3.00;99.90;;;;;;4910501;29;20220;-88
2021/03/15 11:38:59;;;;;;;3.07;1.33;;;3.00;99.90;;;;;;4910319;29;20213;-89
2021/03/15 11:41:33;;;;;;;3.67;1.50;;;2.90;99.90;;;;;;4920128;29;20569;-88
2021/03/15 11:44:04;;;;;;;1.87;1.03;;;2.90;99.90;;;;;;4916933;29;20243;-88
2021/03/15 11:46:35;;;;;;;3.17;0.83;;;2.80;99.90;;;;;;4919391;29;20272;-90
2021/03/15 11:49:06;;;;;;;1.27;0.73;;;2.80;99.90;;;;;;4919865;29;20216;-88
2021/03/15 11:51:37;;;;;;;1.93;0.60;;;2.80;99.90;;;;;;4921900;29;20209;-89
2021/03/15 11:54:09;;;;;;;0.93;0.50;;;2.70;99.90;;;;;;4914327;29;20226;-89
2021/03/15 11:56:40;;;;;;;1.57;1.03;;;2.70;99.90;;;;;;4900979;29;20220;-91
2021/03/15 11:59:10;;;;;;;1.53;0.70;;;2.80;99.90;;;;;;4905043;29;20209;-90
2021/03/15 12:01:41;;;;;;;2.97;0.87;;;2.70;99.90;;;;;;4910513;29;20215;-89
2021/03/15 12:04:12;;;;;;;4.20;1.00;;;2.70;99.90;;;;;;4927401;29;20223;-88
2021/03/15 12:06:43;;;;;;;2.77;0.90;;;2.80;99.90;;;;;;4932086;29;20318;-88
2021/03/15 12:09:14;;;;;;;4.27;1.17;;;2.70;99.90;;;;;;4916896;29;20209;-88
2021/03/15 12:11:51;;;;;;;4.83;1.43;;;2.80;99.90;;;;;;4917072;29;20217;-88
2021/03/15 12:14:23;;;;;;;2.80;1.17;;;2.80;99.90;;;;;;4920584;29;20271;-88
2021/03/15 12:16:54;;;;;;;1.30;0.80;;;2.80;99.90;;;;;;4937773;29;20221;-88
2021/03/15 12:19:25;;;;;;;4.17;1.00;;;2.70;99.90;;;;;;4921053;29;20220;-88
2021/03/15 12:21:56;;;;;;;4.97;1.13;;;2.70;99.90;;;;;;4915257;29;20274;-88
2021/03/15 12:24:26;;;;;;;5.00;1.87;;;2.60;99.90;;;;;;4937441;29;20232;-88
2021/03/15 12:26:59;;;;;;;4.73;0.80;;;2.60;99.90;;;;;;4937698;29;20236;-89
2021/03/15 12:29:32;;;;;;;2.47;0.60;;;2.60;99.90;;;;;;4923733;29;20268;-88
2021/03/15 12:32:02;;;;;;;4.07;0.70;;;2.60;99.90;;;;;;4919201;29;20209;-89
2021/03/15 12:34:34;;;;;;;3.20;0.63;;;2.60;99.90;;;;;;4919609;29;20676;-89
2021/03/15 12:37:05;;;;;;;1.57;0.90;;;2.60;99.90;;;;;;4914075;29;20225;-89
2021/03/15 12:39:36;;;;;;;4.20;1.37;;;2.60;99.90;;;;;;4900544;29;20213;-89
2021/03/15 12:42:12;;;;;;;4.53;1.10;;;2.50;99.90;;;;;;4900565;29;20285;-88
2021/03/15 12:44:43;;;;;;;4.43;1.10;;;2.60;99.90;;;;;;4900634;29;20209;-89
2021/03/15 12:47:15;;;;;;;6.83;2.03;;;2.60;99.90;;;;;;4915631;29;20308;-89
2021/03/15 12:49:49;;;;;;;4.80;2.17;;;2.60;99.90;;;;;;4920723;29;20207;-89
2021/03/15 12:52:20;;;;;;;3.63;2.50;;;2.60;99.90;;;;;;4938780;29;20220;-89
2021/03/15 12:54:51;;;;;;;4.63;2.13;;;2.60;99.90;;;;;;4939600;29;20208;-90
2021/03/15 12:57:25;;;;;;;2.60;1.50;;;2.60;99.90;;;;;;4939007;29;20228;-90
2021/03/15 12:59:56;;;;;;;1.80;1.07;;;2.60;99.90;;;;;;4937582;29;20201;-89
2021/03/15 13:02:27;;;;;;;5.97;2.80;;;2.60;99.90;;;;;;4932199;29;20244;-89
2021/03/15 13:04:57;;;;;;;4.33;2.00;;;2.50;99.90;;;;;;4921169;29;20717;-88
2021/03/15 13:07:27;;;;;;;6.07;2.07;;;2.50;99.90;;;;;;4919406;29;20236;-89
2021/03/15 13:10:00;;;;;;;4.43;1.90;;;2.50;99.90;;;;;;4918971;29;20280;-88
2021/03/15 13:12:33;;;;;;;6.77;2.27;;;2.60;99.90;;;;;;4921781;29;20224;-88
2021/03/15 13:15:08;;;;;;;4.00;2.03;;;2.60;99.90;;;;;;4921479;29;20715;-90
2021/03/15 13:17:39;;;;;;;4.57;1.80;;;2.50;99.90;;;;;;4921669;29;20212;-89
2021/03/15 13:20:10;;;;;;;4.00;1.53;;;2.50;99.90;;;;;;4922093;29;20216;-88
2021/03/15 13:22:42;;;;;;;5.57;1.60;;;2.60;99.90;;;;;;4921989;29;20268;-89
2021/03/15 13:25:13;;;;;;;2.90;1.33;;;2.60;99.90;;;;;;4920811;29;20635;-89
2021/03/15 13:27:46;;;;;;;5.47;1.67;;;2.70;99.90;;;;;;4907967;29;20234;-89
2021/03/15 13:30:17;;;;;;;7.23;1.93;;;2.70;99.90;;;;;;4913562;29;20259;-89
2021/03/15 13:32:47;;;;;;;3.10;1.20;;;2.70;99.90;;;;;;4927098;29;20265;-90
2021/03/15 13:35:19;;;;;;;7.13;1.00;;;2.70;99.90;;;;;;4915971;29;20244;-89
2021/03/15 13:37:50;;;;;;;3.27;0.60;;;2.70;99.90;;;;;;4900882;29;20718;-88